aviador You're here:

ULLI Decoded Metar

ST. PETERSBURG in RUSSIA
Report Time2018-05-21 20:00:00
UTC Time2018-05-21 20:28:44
Flight Rules vfr VFR
Wind300° at 2 kt
W.Decomp.*RWY 28: 2.0 kt HW 0.4 kt RCW
W.Rank300° ranks 7
Current wind is below 300° avg. (9.4)
Visibility9999 m
Phenomena:N/A
Clouds:N/A
Expected CloudBase > 2,800 ft AGL from Temp-Dew spread
CeilingNone
Temp13°C (ISA -2)
Dew Point06°C (63% RH)
AAT11.4°C
QNH1027 hPa
Density Alt-564 ft
Elevation13 ft
Report Wrong Elevation
Raw Report
METAR ULLI 212000Z 30001MPS CAVOK 13/06 Q1027 R88/090060 NOSIG=

Extra information for ULLI:More info

Metar Taf Metar & Taf Last 4 Metars F.Rules Stats Wind Profile Meteogram Temp Stats Airport Information Weather charts Add Link Nearby VenuesMetar ALERT Operation Metar Decoded Social comments